Terminal Aerodrome Forecast
Issued by NWS

Home | Current Version | Previous Version | Text Only | Print | Product List | Glossary On
Versions: 1 2 3 4 5 6 7 8 9 10 11 12 13 14
000
FTUS46 KSEW 232300
TAFBFI
TAF
KBFI 232320Z 2400/2424 18010G17KT P6SM VCSH BKN028 BKN050 OVC090
     FM240100 17008G18KT P6SM -RA BKN028 OVC050
     FM241700 18010G17KT P6SM -SHRA OVC030
     FM242100 19010KT P6SM VCSH SCT030 BKN050=

USA.gov is the U.S. government's official web portal to all federal, state and local government web resources and services.